sensor_id;sensor_type;location;lat;lon;timestamp;P1;durP1;ratioP1;P2;durP2;ratioP2
72388;SDS011;60566;48.062;9.930;2023-06-22T00:01:06;19.52;;;6.10;;
72388;SDS011;60566;48.062;9.930;2023-06-22T00:03:31;17.70;;;5.72;;
72388;SDS011;60566;48.062;9.930;2023-06-22T00:05:58;26.00;;;7.28;;
72388;SDS011;60566;48.062;9.930;2023-06-22T00:08:24;17.30;;;6.68;;
72388;SDS011;60566;48.062;9.930;2023-06-22T00:10:49;17.55;;;6.20;;
72388;SDS011;60566;48.062;9.930;2023-06-22T00:13:14;15.30;;;5.85;;
72388;SDS011;60566;48.062;9.930;2023-06-22T00:15:40;18.85;;;6.93;;
72388;SDS011;60566;48.062;9.930;2023-06-22T00:18:06;15.68;;;6.40;;
72388;SDS011;60566;48.062;9.930;2023-06-22T00:20:32;18.85;;;6.18;;
72388;SDS011;60566;48.062;9.930;2023-06-22T00:22:59;16.02;;;8.20;;
72388;SDS011;60566;48.062;9.930;2023-06-22T00:25:25;17.58;;;6.40;;
72388;SDS011;60566;48.062;9.930;2023-06-22T00:27:50;15.10;;;6.13;;
72388;SDS011;60566;48.062;9.930;2023-06-22T00:30:16;19.45;;;6.13;;
72388;SDS011;60566;48.062;9.930;2023-06-22T00:32:41;18.60;;;5.82;;
72388;SDS011;60566;48.062;9.930;2023-06-22T00:35:07;14.98;;;6.28;;
72388;SDS011;60566;48.062;9.930;2023-06-22T00:37:33;19.30;;;7.38;;
72388;SDS011;60566;48.062;9.930;2023-06-22T00:39:59;21.90;;;7.00;;
72388;SDS011;60566;48.062;9.930;2023-06-22T00:42:25;15.88;;;6.70;;
72388;SDS011;60566;48.062;9.930;2023-06-22T00:44:50;17.45;;;6.07;;
72388;SDS011;60566;48.062;9.930;2023-06-22T00:47:16;18.50;;;6.40;;
72388;SDS011;60566;48.062;9.930;2023-06-22T00:49:43;19.38;;;6.57;;
72388;SDS011;60566;48.062;9.930;2023-06-22T00:52:08;18.38;;;6.95;;
72388;SDS011;60566;48.062;9.930;2023-06-22T00:54:34;19.08;;;5.90;;
72388;SDS011;60566;48.062;9.930;2023-06-22T00:57:01;16.55;;;6.18;;
72388;SDS011;60566;48.062;9.930;2023-06-22T00:59:27;22.33;;;6.65;;
72388;SDS011;60566;48.062;9.930;2023-06-22T01:01:52;15.63;;;5.75;;
72388;SDS011;60566;48.062;9.930;2023-06-22T01:04:18;16.58;;;6.95;;
72388;SDS011;60566;48.062;9.930;2023-06-22T01:06:45;15.18;;;6.60;;
72388;SDS011;60566;48.062;9.930;2023-06-22T01:09:14;20.55;;;6.63;;
72388;SDS011;60566;48.062;9.930;2023-06-22T01:11:41;18.70;;;6.18;;
72388;SDS011;60566;48.062;9.930;2023-06-22T01:14:10;18.40;;;7.35;;
72388;SDS011;60566;48.062;9.930;2023-06-22T01:16:40;17.40;;;6.95;;
72388;SDS011;60566;48.062;9.930;2023-06-22T01:19:08;15.90;;;6.68;;
72388;SDS011;60566;48.062;9.930;2023-06-22T01:21:41;14.63;;;6.32;;
72388;SDS011;60566;48.062;9.930;2023-06-22T01:24:10;22.00;;;7.57;;
72388;SDS011;60566;48.062;9.930;2023-06-22T01:26:42;17.05;;;6.28;;
72388;SDS011;60566;48.062;9.930;2023-06-22T01:29:11;17.00;;;7.18;;
72388;SDS011;60566;48.062;9.930;2023-06-22T01:34:03;19.50;;;7.33;;
72388;SDS011;60566;48.062;9.930;2023-06-22T01:36:29;23.00;;;7.47;;
72388;SDS011;60566;48.062;9.930;2023-06-22T01:38:55;20.00;;;7.30;;
72388;SDS011;60566;48.062;9.930;2023-06-22T01:41:24;23.08;;;7.80;;
72388;SDS011;60566;48.062;9.930;2023-06-22T01:43:50;20.70;;;7.57;;
72388;SDS011;60566;48.062;9.930;2023-06-22T01:46:17;19.42;;;6.85;;
72388;SDS011;60566;48.062;9.930;2023-06-22T01:48:43;20.33;;;7.32;;
72388;SDS011;60566;48.062;9.930;2023-06-22T01:51:08;16.77;;;7.30;;
72388;SDS011;60566;48.062;9.930;2023-06-22T01:53:34;24.80;;;8.30;;
72388;SDS011;60566;48.062;9.930;2023-06-22T01:55:59;20.75;;;7.47;;
72388;SDS011;60566;48.062;9.930;2023-06-22T01:58:26;15.73;;;6.60;;
72388;SDS011;60566;48.062;9.930;2023-06-22T02:00:53;17.83;;;7.15;;
72388;SDS011;60566;48.062;9.930;2023-06-22T02:03:23;17.83;;;7.63;;
72388;SDS011;60566;48.062;9.930;2023-06-22T02:05:52;17.65;;;6.90;;
72388;SDS011;60566;48.062;9.930;2023-06-22T02:08:22;18.90;;;7.55;;
72388;SDS011;60566;48.062;9.930;2023-06-22T02:10:49;16.45;;;7.38;;
72388;SDS011;60566;48.062;9.930;2023-06-22T02:13:15;17.45;;;7.80;;
72388;SDS011;60566;48.062;9.930;2023-06-22T02:15:41;18.98;;;8.02;;
72388;SDS011;60566;48.062;9.930;2023-06-22T02:18:07;20.73;;;7.07;;
72388;SDS011;60566;48.062;9.930;2023-06-22T02:20:34;16.35;;;7.00;;
72388;SDS011;60566;48.062;9.930;2023-06-22T02:23:01;21.25;;;8.07;;
72388;SDS011;60566;48.062;9.930;2023-06-22T02:25:26;17.13;;;7.18;;
72388;SDS011;60566;48.062;9.930;2023-06-22T02:27:52;18.27;;;7.05;;
72388;SDS011;60566;48.062;9.930;2023-06-22T02:30:17;17.08;;;7.60;;
72388;SDS011;60566;48.062;9.930;2023-06-22T02:32:42;19.75;;;7.20;;
72388;SDS011;60566;48.062;9.930;2023-06-22T02:35:08;19.80;;;7.30;;
72388;SDS011;60566;48.062;9.930;2023-06-22T02:37:36;22.65;;;7.90;;
72388;SDS011;60566;48.062;9.930;2023-06-22T02:40:02;20.52;;;7.63;;
72388;SDS011;60566;48.062;9.930;2023-06-22T02:42:28;18.95;;;7.78;;
72388;SDS011;60566;48.062;9.930;2023-06-22T02:44:53;19.88;;;7.95;;
72388;SDS011;60566;48.062;9.930;2023-06-22T02:47:19;20.08;;;7.55;;
72388;SDS011;60566;48.062;9.930;2023-06-22T02:49:44;19.90;;;8.05;;
72388;SDS011;60566;48.062;9.930;2023-06-22T02:52:10;18.63;;;8.30;;
72388;SDS011;60566;48.062;9.930;2023-06-22T02:54:36;19.65;;;7.97;;
72388;SDS011;60566;48.062;9.930;2023-06-22T02:57:02;20.63;;;7.50;;
72388;SDS011;60566;48.062;9.930;2023-06-22T02:59:28;20.10;;;7.97;;
72388;SDS011;60566;48.062;9.930;2023-06-22T03:01:53;20.98;;;7.88;;
72388;SDS011;60566;48.062;9.930;2023-06-22T03:04:18;19.35;;;9.15;;
72388;SDS011;60566;48.062;9.930;2023-06-22T03:06:44;22.50;;;8.38;;
72388;SDS011;60566;48.062;9.930;2023-06-22T03:09:09;19.85;;;7.15;;
72388;SDS011;60566;48.062;9.930;2023-06-22T03:11:36;18.63;;;8.05;;
72388;SDS011;60566;48.062;9.930;2023-06-22T03:14:01;20.83;;;8.43;;
72388;SDS011;60566;48.062;9.930;2023-06-22T03:16:27;19.42;;;7.50;;
72388;SDS011;60566;48.062;9.930;2023-06-22T03:18:52;22.42;;;8.45;;
72388;SDS011;60566;48.062;9.930;2023-06-22T03:21:18;22.23;;;7.97;;
72388;SDS011;60566;48.062;9.930;2023-06-22T03:23:43;18.02;;;7.75;;
72388;SDS011;60566;48.062;9.930;2023-06-22T03:26:08;19.85;;;8.15;;
72388;SDS011;60566;48.062;9.930;2023-06-22T03:28:35;21.52;;;8.32;;
72388;SDS011;60566;48.062;9.930;2023-06-22T03:31:01;22.88;;;8.00;;
72388;SDS011;60566;48.062;9.930;2023-06-22T03:33:26;21.88;;;9.82;;
72388;SDS011;60566;48.062;9.930;2023-06-22T03:35:52;19.50;;;7.93;;
72388;SDS011;60566;48.062;9.930;2023-06-22T03:38:17;19.48;;;8.23;;
72388;SDS011;60566;48.062;9.930;2023-06-22T03:40:42;22.73;;;8.60;;
72388;SDS011;60566;48.062;9.930;2023-06-22T03:43:08;23.20;;;8.45;;
72388;SDS011;60566;48.062;9.930;2023-06-22T03:45:34;22.55;;;8.27;;
72388;SDS011;60566;48.062;9.930;2023-06-22T03:48:00;20.90;;;9.82;;
72388;SDS011;60566;48.062;9.930;2023-06-22T03:50:25;17.80;;;7.68;;
72388;SDS011;60566;48.062;9.930;2023-06-22T03:52:51;16.33;;;7.88;;
72388;SDS011;60566;48.062;9.930;2023-06-22T03:55:16;20.83;;;8.52;;
72388;SDS011;60566;48.062;9.930;2023-06-22T03:57:41;18.27;;;7.97;;
72388;SDS011;60566;48.062;9.930;2023-06-22T04:00:07;18.85;;;7.82;;
72388;SDS011;60566;48.062;9.930;2023-06-22T04:02:35;21.65;;;9.05;;
72388;SDS011;60566;48.062;9.930;2023-06-22T04:05:00;18.77;;;7.55;;
72388;SDS011;60566;48.062;9.930;2023-06-22T04:07:26;18.48;;;7.57;;
72388;SDS011;60566;48.062;9.930;2023-06-22T04:09:51;25.50;;;8.02;;
72388;SDS011;60566;48.062;9.930;2023-06-22T04:12:17;18.55;;;7.75;;
72388;SDS011;60566;48.062;9.930;2023-06-22T04:14:42;25.27;;;7.85;;
72388;SDS011;60566;48.062;9.930;2023-06-22T04:17:07;19.00;;;7.80;;
72388;SDS011;60566;48.062;9.930;2023-06-22T04:19:34;21.77;;;8.40;;
72388;SDS011;60566;48.062;9.930;2023-06-22T04:22:00;18.00;;;9.38;;
72388;SDS011;60566;48.062;9.930;2023-06-22T04:24:25;19.88;;;8.13;;
72388;SDS011;60566;48.062;9.930;2023-06-22T04:26:50;21.35;;;7.47;;
72388;SDS011;60566;48.062;9.930;2023-06-22T04:29:16;19.88;;;7.47;;
72388;SDS011;60566;48.062;9.930;2023-06-22T04:31:41;16.95;;;7.93;;
72388;SDS011;60566;48.062;9.930;2023-06-22T04:34:07;19.45;;;7.07;;
72388;SDS011;60566;48.062;9.930;2023-06-22T04:36:37;18.65;;;7.53;;
72388;SDS011;60566;48.062;9.930;2023-06-22T04:39:06;18.55;;;8.32;;
72388;SDS011;60566;48.062;9.930;2023-06-22T04:41:32;18.33;;;6.97;;
72388;SDS011;60566;48.062;9.930;2023-06-22T04:43:58;18.63;;;7.70;;
72388;SDS011;60566;48.062;9.930;2023-06-22T04:46:23;19.13;;;7.50;;
72388;SDS011;60566;48.062;9.930;2023-06-22T04:48:48;19.95;;;8.45;;
72388;SDS011;60566;48.062;9.930;2023-06-22T04:51:14;26.73;;;8.25;;
72388;SDS011;60566;48.062;9.930;2023-06-22T04:53:40;22.73;;;8.68;;
72388;SDS011;60566;48.062;9.930;2023-06-22T04:56:06;20.33;;;10.15;;
72388;SDS011;60566;48.062;9.930;2023-06-22T04:58:31;19.60;;;9.20;;
72388;SDS011;60566;48.062;9.930;2023-06-22T05:00:56;18.02;;;8.60;;
72388;SDS011;60566;48.062;9.930;2023-06-22T05:03:22;24.00;;;9.05;;
72388;SDS011;60566;48.062;9.930;2023-06-22T05:05:48;20.55;;;7.65;;
72388;SDS011;60566;48.062;9.930;2023-06-22T05:08:13;21.50;;;8.10;;
72388;SDS011;60566;48.062;9.930;2023-06-22T05:10:40;19.30;;;8.00;;
72388;SDS011;60566;48.062;9.930;2023-06-22T05:13:05;21.25;;;9.40;;
72388;SDS011;60566;48.062;9.930;2023-06-22T05:15:31;19.92;;;8.23;;
72388;SDS011;60566;48.062;9.930;2023-06-22T05:17:56;22.20;;;9.18;;
72388;SDS011;60566;48.062;9.930;2023-06-22T05:20:21;17.55;;;8.40;;
72388;SDS011;60566;48.062;9.930;2023-06-22T05:22:47;15.15;;;8.20;;
72388;SDS011;60566;48.062;9.930;2023-06-22T05:25:12;16.77;;;7.97;;
72388;SDS011;60566;48.062;9.930;2023-06-22T05:27:39;22.00;;;8.45;;
72388;SDS011;60566;48.062;9.930;2023-06-22T05:30:05;20.85;;;8.90;;
72388;SDS011;60566;48.062;9.930;2023-06-22T05:32:31;19.55;;;7.82;;
72388;SDS011;60566;48.062;9.930;2023-06-22T05:34:56;23.27;;;9.05;;
72388;SDS011;60566;48.062;9.930;2023-06-22T05:37:22;16.35;;;7.90;;
72388;SDS011;60566;48.062;9.930;2023-06-22T05:39:47;18.45;;;8.63;;
72388;SDS011;60566;48.062;9.930;2023-06-22T05:42:12;19.13;;;8.10;;
72388;SDS011;60566;48.062;9.930;2023-06-22T05:44:39;22.77;;;8.15;;
72388;SDS011;60566;48.062;9.930;2023-06-22T05:47:05;20.48;;;8.65;;
72388;SDS011;60566;48.062;9.930;2023-06-22T05:49:30;19.50;;;8.35;;
72388;SDS011;60566;48.062;9.930;2023-06-22T05:51:55;18.30;;;7.50;;
72388;SDS011;60566;48.062;9.930;2023-06-22T05:54:21;16.88;;;8.00;;
72388;SDS011;60566;48.062;9.930;2023-06-22T05:56:46;17.63;;;7.55;;
72388;SDS011;60566;48.062;9.930;2023-06-22T05:59:11;17.92;;;8.10;;
72388;SDS011;60566;48.062;9.930;2023-06-22T06:01:38;18.80;;;8.50;;
72388;SDS011;60566;48.062;9.930;2023-06-22T06:04:04;21.50;;;8.65;;
72388;SDS011;60566;48.062;9.930;2023-06-22T06:06:29;17.33;;;7.95;;
72388;SDS011;60566;48.062;9.930;2023-06-22T06:08:55;19.20;;;7.97;;
72388;SDS011;60566;48.062;9.930;2023-06-22T06:11:21;20.60;;;8.35;;
72388;SDS011;60566;48.062;9.930;2023-06-22T06:13:46;20.95;;;8.40;;
72388;SDS011;60566;48.062;9.930;2023-06-22T06:16:12;20.92;;;8.63;;
72388;SDS011;60566;48.062;9.930;2023-06-22T06:18:39;22.88;;;8.43;;
72388;SDS011;60566;48.062;9.930;2023-06-22T06:21:04;23.38;;;8.23;;
72388;SDS011;60566;48.062;9.930;2023-06-22T06:23:29;17.83;;;8.48;;
72388;SDS011;60566;48.062;9.930;2023-06-22T06:25:55;23.88;;;7.88;;
72388;SDS011;60566;48.062;9.930;2023-06-22T06:28:21;20.73;;;8.55;;
72388;SDS011;60566;48.062;9.930;2023-06-22T06:30:46;18.25;;;7.57;;
72388;SDS011;60566;48.062;9.930;2023-06-22T06:33:12;18.30;;;7.68;;
72388;SDS011;60566;48.062;9.930;2023-06-22T06:35:38;17.08;;;7.70;;
72388;SDS011;60566;48.062;9.930;2023-06-22T06:38:04;23.17;;;8.70;;
72388;SDS011;60566;48.062;9.930;2023-06-22T06:40:29;20.67;;;8.13;;
72388;SDS011;60566;48.062;9.930;2023-06-22T06:42:55;21.17;;;8.48;;
72388;SDS011;60566;48.062;9.930;2023-06-22T06:45:21;23.13;;;9.43;;
72388;SDS011;60566;48.062;9.930;2023-06-22T06:47:47;20.70;;;8.90;;
72388;SDS011;60566;48.062;9.930;2023-06-22T06:50:12;15.75;;;7.78;;
72388;SDS011;60566;48.062;9.930;2023-06-22T06:52:39;18.77;;;8.85;;
72388;SDS011;60566;48.062;9.930;2023-06-22T06:55:05;18.02;;;8.18;;
72388;SDS011;60566;48.062;9.930;2023-06-22T06:57:31;19.70;;;8.50;;
72388;SDS011;60566;48.062;9.930;2023-06-22T06:59:57;20.20;;;8.93;;
72388;SDS011;60566;48.062;9.930;2023-06-22T07:02:22;21.67;;;8.57;;
72388;SDS011;60566;48.062;9.930;2023-06-22T07:04:48;17.08;;;8.27;;
72388;SDS011;60566;48.062;9.930;2023-06-22T07:07:13;24.08;;;8.60;;
72388;SDS011;60566;48.062;9.930;2023-06-22T07:09:40;20.92;;;10.00;;
72388;SDS011;60566;48.062;9.930;2023-06-22T07:12:05;18.98;;;8.80;;
72388;SDS011;60566;48.062;9.930;2023-06-22T07:14:31;21.02;;;8.77;;
72388;SDS011;60566;48.062;9.930;2023-06-22T07:16:57;17.42;;;8.52;;
72388;SDS011;60566;48.062;9.930;2023-06-22T07:19:26;21.38;;;9.32;;
72388;SDS011;60566;48.062;9.930;2023-06-22T07:21:51;21.98;;;10.38;;
72388;SDS011;60566;48.062;9.930;2023-06-22T07:24:17;22.27;;;8.45;;
72388;SDS011;60566;48.062;9.930;2023-06-22T07:26:43;22.55;;;9.63;;
72388;SDS011;60566;48.062;9.930;2023-06-22T07:29:09;22.95;;;9.32;;
72388;SDS011;60566;48.062;9.930;2023-06-22T07:31:34;21.08;;;9.88;;
72388;SDS011;60566;48.062;9.930;2023-06-22T07:33:59;22.30;;;9.73;;
72388;SDS011;60566;48.062;9.930;2023-06-22T07:36:25;20.05;;;9.55;;
72388;SDS011;60566;48.062;9.930;2023-06-22T07:38:50;19.30;;;9.23;;
72388;SDS011;60566;48.062;9.930;2023-06-22T07:41:15;21.90;;;8.85;;
72388;SDS011;60566;48.062;9.930;2023-06-22T07:43:42;22.67;;;9.60;;
72388;SDS011;60566;48.062;9.930;2023-06-22T07:46:07;19.65;;;9.65;;
72388;SDS011;60566;48.062;9.930;2023-06-22T07:48:33;23.45;;;8.85;;
72388;SDS011;60566;48.062;9.930;2023-06-22T07:51:01;16.77;;;8.40;;
72388;SDS011;60566;48.062;9.930;2023-06-22T07:53:27;20.48;;;9.10;;
72388;SDS011;60566;48.062;9.930;2023-06-22T07:55:52;26.77;;;10.52;;
72388;SDS011;60566;48.062;9.930;2023-06-22T07:58:19;19.50;;;8.95;;
72388;SDS011;60566;48.062;9.930;2023-06-22T08:00:45;18.65;;;8.95;;
72388;SDS011;60566;48.062;9.930;2023-06-22T08:03:11;19.90;;;9.52;;
72388;SDS011;60566;48.062;9.930;2023-06-22T08:05:37;16.83;;;8.23;;
72388;SDS011;60566;48.062;9.930;2023-06-22T08:08:02;19.73;;;10.07;;
72388;SDS011;60566;48.062;9.930;2023-06-22T08:10:28;23.05;;;9.18;;
72388;SDS011;60566;48.062;9.930;2023-06-22T08:12:53;22.60;;;9.93;;
72388;SDS011;60566;48.062;9.930;2023-06-22T08:15:18;19.95;;;9.20;;
72388;SDS011;60566;48.062;9.930;2023-06-22T08:17:45;21.55;;;9.38;;
72388;SDS011;60566;48.062;9.930;2023-06-22T08:20:11;21.08;;;9.07;;
72388;SDS011;60566;48.062;9.930;2023-06-22T08:22:36;22.75;;;10.05;;
72388;SDS011;60566;48.062;9.930;2023-06-22T08:25:02;23.08;;;9.27;;
72388;SDS011;60566;48.062;9.930;2023-06-22T08:27:28;22.08;;;9.88;;
72388;SDS011;60566;48.062;9.930;2023-06-22T08:29:53;22.90;;;11.02;;
72388;SDS011;60566;48.062;9.930;2023-06-22T08:32:18;21.38;;;9.50;;
72388;SDS011;60566;48.062;9.930;2023-06-22T08:34:45;27.92;;;10.20;;
72388;SDS011;60566;48.062;9.930;2023-06-22T08:37:11;22.17;;;9.00;;
72388;SDS011;60566;48.062;9.930;2023-06-22T08:39:36;20.48;;;10.15;;
72388;SDS011;60566;48.062;9.930;2023-06-22T08:42:02;21.08;;;9.52;;
72388;SDS011;60566;48.062;9.930;2023-06-22T08:44:27;25.60;;;9.68;;
72388;SDS011;60566;48.062;9.930;2023-06-22T08:46:53;19.08;;;9.25;;
72388;SDS011;60566;48.062;9.930;2023-06-22T08:49:18;22.38;;;9.65;;
72388;SDS011;60566;48.062;9.930;2023-06-22T08:51:45;27.58;;;9.77;;
72388;SDS011;60566;48.062;9.930;2023-06-22T08:54:10;24.25;;;11.13;;
72388;SDS011;60566;48.062;9.930;2023-06-22T08:56:36;21.13;;;9.45;;
72388;SDS011;60566;48.062;9.930;2023-06-22T08:59:01;17.30;;;9.35;;
72388;SDS011;60566;48.062;9.930;2023-06-22T09:01:27;22.08;;;8.70;;
72388;SDS011;60566;48.062;9.930;2023-06-22T09:03:52;20.50;;;8.10;;
72388;SDS011;60566;48.062;9.930;2023-06-22T09:06:18;24.73;;;8.48;;
72388;SDS011;60566;48.062;9.930;2023-06-22T09:08:44;24.02;;;7.72;;
72388;SDS011;60566;48.062;9.930;2023-06-22T09:11:10;26.98;;;8.63;;
72388;SDS011;60566;48.062;9.930;2023-06-22T09:13:35;25.95;;;9.30;;
72388;SDS011;60566;48.062;9.930;2023-06-22T09:16:00;21.13;;;8.98;;
72388;SDS011;60566;48.062;9.930;2023-06-22T09:18:26;19.73;;;8.23;;
72388;SDS011;60566;48.062;9.930;2023-06-22T09:20:51;20.38;;;8.85;;
72388;SDS011;60566;48.062;9.930;2023-06-22T09:23:16;33.67;;;10.52;;
72388;SDS011;60566;48.062;9.930;2023-06-22T09:25:43;27.13;;;10.25;;
72388;SDS011;60566;48.062;9.930;2023-06-22T09:28:08;23.52;;;10.05;;
72388;SDS011;60566;48.062;9.930;2023-06-22T09:30:34;29.58;;;9.32;;
72388;SDS011;60566;48.062;9.930;2023-06-22T09:32:59;24.15;;;9.15;;
72388;SDS011;60566;48.062;9.930;2023-06-22T09:35:24;29.27;;;9.25;;
72388;SDS011;60566;48.062;9.930;2023-06-22T09:37:50;26.48;;;10.88;;
72388;SDS011;60566;48.062;9.930;2023-06-22T09:40:15;22.02;;;10.25;;
72388;SDS011;60566;48.062;9.930;2023-06-22T09:42:42;20.17;;;9.20;;
72388;SDS011;60566;48.062;9.930;2023-06-22T09:45:08;31.05;;;10.18;;
72388;SDS011;60566;48.062;9.930;2023-06-22T09:47:33;25.00;;;9.98;;
72388;SDS011;60566;48.062;9.930;2023-06-22T09:49:59;23.83;;;8.98;;
72388;SDS011;60566;48.062;9.930;2023-06-22T09:52:24;21.42;;;9.52;;
72388;SDS011;60566;48.062;9.930;2023-06-22T09:54:49;48.15;;;11.55;;
72388;SDS011;60566;48.062;9.930;2023-06-22T09:57:15;22.08;;;10.05;;
72388;SDS011;60566;48.062;9.930;2023-06-22T09:59:42;24.73;;;9.52;;
72388;SDS011;60566;48.062;9.930;2023-06-22T10:02:07;29.40;;;11.25;;
72388;SDS011;60566;48.062;9.930;2023-06-22T10:04:33;20.20;;;7.90;;
72388;SDS011;60566;48.062;9.930;2023-06-22T10:06:58;24.00;;;9.30;;
72388;SDS011;60566;48.062;9.930;2023-06-22T10:09:23;21.20;;;10.68;;
72388;SDS011;60566;48.062;9.930;2023-06-22T10:11:49;35.03;;;11.05;;
72388;SDS011;60566;48.062;9.930;2023-06-22T10:14:14;35.63;;;10.65;;
72388;SDS011;60566;48.062;9.930;2023-06-22T10:16:41;22.63;;;10.13;;
72388;SDS011;60566;48.062;9.930;2023-06-22T10:19:07;27.73;;;9.73;;
72388;SDS011;60566;48.062;9.930;2023-06-22T10:21:32;23.08;;;8.98;;
72388;SDS011;60566;48.062;9.930;2023-06-22T10:23:57;24.48;;;9.00;;
72388;SDS011;60566;48.062;9.930;2023-06-22T10:26:23;24.10;;;9.55;;
72388;SDS011;60566;48.062;9.930;2023-06-22T10:28:48;25.85;;;8.98;;
72388;SDS011;60566;48.062;9.930;2023-06-22T10:31:13;20.63;;;9.30;;
72388;SDS011;60566;48.062;9.930;2023-06-22T10:33:40;25.50;;;9.18;;
72388;SDS011;60566;48.062;9.930;2023-06-22T10:36:05;25.88;;;8.98;;
72388;SDS011;60566;48.062;9.930;2023-06-22T10:38:31;24.92;;;8.50;;
72388;SDS011;60566;48.062;9.930;2023-06-22T10:40:56;22.80;;;8.50;;
72388;SDS011;60566;48.062;9.930;2023-06-22T10:43:22;18.25;;;7.72;;
72388;SDS011;60566;48.062;9.930;2023-06-22T10:45:47;27.67;;;7.93;;
72388;SDS011;60566;48.062;9.930;2023-06-22T10:48:12;19.10;;;7.40;;
72388;SDS011;60566;48.062;9.930;2023-06-22T10:50:39;21.52;;;7.82;;
72388;SDS011;60566;48.062;9.930;2023-06-22T10:53:05;19.85;;;6.30;;
72388;SDS011;60566;48.062;9.930;2023-06-22T10:55:30;23.17;;;6.53;;
72388;SDS011;60566;48.062;9.930;2023-06-22T10:57:55;18.85;;;6.78;;
72388;SDS011;60566;48.062;9.930;2023-06-22T11:00:21;16.40;;;6.80;;
72388;SDS011;60566;48.062;9.930;2023-06-22T11:02:46;22.80;;;7.25;;
72388;SDS011;60566;48.062;9.930;2023-06-22T11:05:11;26.65;;;8.10;;
72388;SDS011;60566;48.062;9.930;2023-06-22T11:07:38;23.52;;;6.93;;
72388;SDS011;60566;48.062;9.930;2023-06-22T11:10:07;21.10;;;7.97;;
72388;SDS011;60566;48.062;9.930;2023-06-22T11:12:32;21.17;;;8.25;;
72388;SDS011;60566;48.062;9.930;2023-06-22T11:14:58;21.05;;;7.65;;
72388;SDS011;60566;48.062;9.930;2023-06-22T11:17:23;24.02;;;7.65;;
72388;SDS011;60566;48.062;9.930;2023-06-22T11:19:48;23.67;;;7.05;;
72388;SDS011;60566;48.062;9.930;2023-06-22T11:22:14;24.70;;;7.22;;
72388;SDS011;60566;48.062;9.930;2023-06-22T11:24:40;20.50;;;6.80;;
72388;SDS011;60566;48.062;9.930;2023-06-22T11:27:06;20.60;;;7.43;;
72388;SDS011;60566;48.062;9.930;2023-06-22T11:29:32;22.92;;;7.43;;
72388;SDS011;60566;48.062;9.930;2023-06-22T11:31:57;16.98;;;6.93;;
72388;SDS011;60566;48.062;9.930;2023-06-22T11:34:22;18.38;;;6.22;;
72388;SDS011;60566;48.062;9.930;2023-06-22T11:36:48;19.23;;;7.00;;
72388;SDS011;60566;48.062;9.930;2023-06-22T11:39:13;19.27;;;6.10;;
72388;SDS011;60566;48.062;9.930;2023-06-22T11:41:40;22.65;;;7.00;;
72388;SDS011;60566;48.062;9.930;2023-06-22T11:44:05;19.90;;;6.70;;
72388;SDS011;60566;48.062;9.930;2023-06-22T11:46:31;19.15;;;6.72;;
72388;SDS011;60566;48.062;9.930;2023-06-22T11:48:57;18.65;;;7.90;;
72388;SDS011;60566;48.062;9.930;2023-06-22T11:51:22;22.83;;;8.05;;
72388;SDS011;60566;48.062;9.930;2023-06-22T11:53:47;20.92;;;7.60;;
72388;SDS011;60566;48.062;9.930;2023-06-22T11:56:13;20.60;;;6.72;;
72388;SDS011;60566;48.062;9.930;2023-06-22T11:58:40;18.58;;;7.10;;
72388;SDS011;60566;48.062;9.930;2023-06-22T12:01:05;20.60;;;8.10;;
72388;SDS011;60566;48.062;9.930;2023-06-22T12:03:30;26.17;;;8.73;;
72388;SDS011;60566;48.062;9.930;2023-06-22T12:05:56;21.17;;;8.20;;
72388;SDS011;60566;48.062;9.930;2023-06-22T12:08:21;21.73;;;8.05;;
72388;SDS011;60566;48.062;9.930;2023-06-22T12:10:46;31.23;;;8.05;;
72388;SDS011;60566;48.062;9.930;2023-06-22T12:13:14;22.75;;;7.78;;
72388;SDS011;60566;48.062;9.930;2023-06-22T12:15:41;21.13;;;7.20;;
72388;SDS011;60566;48.062;9.930;2023-06-22T12:18:06;22.40;;;7.97;;
72388;SDS011;60566;48.062;9.930;2023-06-22T12:20:32;19.95;;;7.15;;
72388;SDS011;60566;48.062;9.930;2023-06-22T12:22:57;23.48;;;8.05;;
72388;SDS011;60566;48.062;9.930;2023-06-22T12:25:23;21.13;;;7.65;;
72388;SDS011;60566;48.062;9.930;2023-06-22T12:27:48;23.45;;;8.30;;
72388;SDS011;60566;48.062;9.930;2023-06-22T12:30:15;22.02;;;8.50;;
72388;SDS011;60566;48.062;9.930;2023-06-22T12:32:42;25.58;;;8.75;;
72388;SDS011;60566;48.062;9.930;2023-06-22T12:35:07;19.88;;;7.65;;
72388;SDS011;60566;48.062;9.930;2023-06-22T12:37:33;20.35;;;8.13;;
72388;SDS011;60566;48.062;9.930;2023-06-22T12:39:58;22.35;;;8.68;;
72388;SDS011;60566;48.062;9.930;2023-06-22T12:42:23;18.27;;;8.10;;
72388;SDS011;60566;48.062;9.930;2023-06-22T12:44:49;21.67;;;9.38;;
72388;SDS011;60566;48.062;9.930;2023-06-22T12:47:14;25.52;;;8.95;;
72388;SDS011;60566;48.062;9.930;2023-06-22T12:49:41;27.23;;;9.05;;
72388;SDS011;60566;48.062;9.930;2023-06-22T12:52:08;25.67;;;9.32;;
72388;SDS011;60566;48.062;9.930;2023-06-22T12:56:59;26.10;;;8.87;;
72388;SDS011;60566;48.062;9.930;2023-06-22T12:59:24;21.15;;;7.10;;
72388;SDS011;60566;48.062;9.930;2023-06-22T13:01:50;21.98;;;7.50;;
72388;SDS011;60566;48.062;9.930;2023-06-22T13:04:15;17.35;;;7.63;;
72388;SDS011;60566;48.062;9.930;2023-06-22T13:06:42;20.85;;;7.30;;
72388;SDS011;60566;48.062;9.930;2023-06-22T13:09:07;20.33;;;7.22;;
72388;SDS011;60566;48.062;9.930;2023-06-22T13:11:34;20.13;;;7.90;;
72388;SDS011;60566;48.062;9.930;2023-06-22T13:13:59;24.42;;;7.35;;
72388;SDS011;60566;48.062;9.930;2023-06-22T13:16:24;29.33;;;7.15;;
72388;SDS011;60566;48.062;9.930;2023-06-22T13:18:50;26.08;;;8.13;;
72388;SDS011;60566;48.062;9.930;2023-06-22T13:21:15;28.83;;;8.27;;
72388;SDS011;60566;48.062;9.930;2023-06-22T13:23:42;21.35;;;7.43;;
72388;SDS011;60566;48.062;9.930;2023-06-22T13:26:07;21.95;;;8.40;;
72388;SDS011;60566;48.062;9.930;2023-06-22T13:28:33;28.75;;;8.75;;
72388;SDS011;60566;48.062;9.930;2023-06-22T13:30:58;15.90;;;6.60;;
72388;SDS011;60566;48.062;9.930;2023-06-22T13:33:23;26.00;;;7.53;;
72388;SDS011;60566;48.062;9.930;2023-06-22T13:35:49;18.50;;;7.65;;
72388;SDS011;60566;48.062;9.930;2023-06-22T13:38:14;25.27;;;7.63;;
72388;SDS011;60566;48.062;9.930;2023-06-22T13:40:41;19.30;;;7.43;;
72388;SDS011;60566;48.062;9.930;2023-06-22T13:43:06;31.27;;;7.55;;
72388;SDS011;60566;48.062;9.930;2023-06-22T13:45:32;22.65;;;7.80;;
72388;SDS011;60566;48.062;9.930;2023-06-22T13:47:57;21.08;;;7.65;;
72388;SDS011;60566;48.062;9.930;2023-06-22T13:50:23;21.60;;;7.78;;
72388;SDS011;60566;48.062;9.930;2023-06-22T13:52:48;25.75;;;9.07;;
72388;SDS011;60566;48.062;9.930;2023-06-22T13:55:13;25.38;;;8.35;;
72388;SDS011;60566;48.062;9.930;2023-06-22T13:57:40;24.30;;;7.93;;
72388;SDS011;60566;48.062;9.930;2023-06-22T14:00:06;24.67;;;8.52;;
72388;SDS011;60566;48.062;9.930;2023-06-22T14:02:35;17.80;;;7.47;;
72388;SDS011;60566;48.062;9.930;2023-06-22T14:05:00;24.55;;;8.15;;
72388;SDS011;60566;48.062;9.930;2023-06-22T14:07:26;22.70;;;7.28;;
72388;SDS011;60566;48.062;9.930;2023-06-22T14:09:51;22.63;;;7.93;;
72388;SDS011;60566;48.062;9.930;2023-06-22T14:12:17;22.35;;;8.40;;
72388;SDS011;60566;48.062;9.930;2023-06-22T14:14:43;22.15;;;8.80;;
72388;SDS011;60566;48.062;9.930;2023-06-22T14:17:09;28.10;;;8.75;;
72388;SDS011;60566;48.062;9.930;2023-06-22T14:19:35;19.13;;;8.18;;
72388;SDS011;60566;48.062;9.930;2023-06-22T14:22:01;21.30;;;8.25;;
72388;SDS011;60566;48.062;9.930;2023-06-22T14:24:26;21.40;;;8.05;;
72388;SDS011;60566;48.062;9.930;2023-06-22T14:26:52;21.92;;;8.93;;
72388;SDS011;60566;48.062;9.930;2023-06-22T14:29:18;23.10;;;8.48;;